Flight Track Log - Related Links

Times and Time Zones

All times are in EDT time to prevent confusion due to time zone crossing. See the C-FXDD flight status page for this flight to view local times or setup timezone preferences in your user account.

Time Position Orientation Groundspeed Altitude Reporting Facility
EDT Latitude Longitude Course Direction KTS MPH feet Rate Location/Type
Tue 03:26:07 PM 48.9333 -88.3000 243° Southwest 150 173 8,000  Level Winnipeg Center
Tue 03:27:07 PM 48.9167 -88.3500 243° Southwest 150 173 8,000  Level Winnipeg Center
Tue 03:28:07 PM 48.9000 -88.4000 243° Southwest 150 173 8,000  Level Winnipeg Center
Tue 03:29:07 PM 48.8667 -88.4333 213° Southwest 150 173 8,000  Level Winnipeg Center
Tue 03:30:07 PM 48.8333 -88.5000 233° Southwest 150 173 8,000  Level Winnipeg Center
Tue 03:31:07 PM 48.8000 -88.5333 213° Southwest 150 173 8,000  Level Winnipeg Center
Tue 03:32:07 PM 48.7833 -88.5833 243° Southwest 150 173 8,000 -100 Level Winnipeg Center
Tue 03:33:07 PM 48.7500 -88.6167 213° Southwest 150 173 7,800 -250 Descending Winnipeg Center
Tue 03:34:07 PM 48.7167 -88.6667 225° Southwest 150 173 7,500 -300 Descending Winnipeg Center
Tue 03:35:07 PM 48.6833 -88.7000 213° Southwest 150 173 7,200 -350 Descending Winnipeg Center
Tue 03:36:07 PM 48.6500 -88.7500 225° Southwest 150 173 6,800 -400 Descending Winnipeg Center
Tue 03:37:07 PM 48.6333 -88.8167 249° West 150 173 6,400 -350 Descending Winnipeg Center
Tue 03:38:07 PM 48.6167 -88.8667 243° Southwest 150 173 6,100 -350 Descending Winnipeg Center
Tue 03:39:07 PM 48.5833 -88.9000 213° Southwest 150 173 5,700 -450 Descending Winnipeg Center
Tue 03:40:07 PM 48.5500 -88.9500 225° Southwest 150 173 5,200 -350 Descending Winnipeg Center
Tue 03:41:07 PM 48.5333 -89.0000 243° Southwest 150 173 5,000 -100 Descending Winnipeg Center
Tue 03:42:07 PM 48.5167 -89.0667 249° West 140 161 5,000  Level Winnipeg Center
Tue 03:43:07 PM 48.5000 -89.0833 214° Southwest 130 150 5,000  Level Winnipeg Center
Tue 03:44:07 PM 48.4833 -89.1333 243° Southwest 130 150 5,000  Level Winnipeg Center
Tue 03:45:07 PM 48.4667 -89.2000 249° West 140 161 5,000  Level Winnipeg Center
Tue 03:46:07 PM 48.4500 -89.2667 249° West 140 161 5,000  Level Winnipeg Center
Tue 03:47:07 PM 48.4500 -89.3167 270° West 140 161 5,000  Level Winnipeg Center
Tue 03:48:07 PM 48.4333 -89.3833 249° West 130 150 5,000 -150 Level Winnipeg Center
Tue 03:49:07 PM 48.4167 -89.4000 214° Southwest 120 138 4,700 -400 Descending Winnipeg Center
Tue 03:50:07 PM 48.4000 -89.4500 243° Southwest 120 138 4,200 -450 Descending Winnipeg Center
Tue 03:51:07 PM 48.3833 -89.4833 233° Southwest 120 138 3,800 -500 Descending Winnipeg Center
Tue 03:52:07 PM 48.3500 -89.4667 162° South 120 138 3,200 -400 Descending Winnipeg Center
Tue 03:53:07 PM 48.3333 -89.4333 127° Southeast 120 138 3,000 -250 Descending Winnipeg Center
Tue 03:54:07 PM 48.3333 -89.3833 90° East 110 127 2,700 -700 Descending Winnipeg Center
Tue 03:55:07 PM 48.3500 -89.3333 63° Northeast 100 115 1,600 -900 Descending Winnipeg Center
Tue 03:56:07 PM 48.3500 -89.3167 90° East 90 104 900 -450 Descending Winnipeg Center
Tue 03:57:07 PM 48.3667 -89.2833 53° Northeast 80 92 700 -74 Descending Winnipeg Center
Tue 03:58:50 PM 48.3667 -89.2833 53° Northeast 70 81 700 11 Level Winnipeg Center
Tue 04:00:00 PM 48.3769 -89.3311 288° West  Level FlightAware Approximate
Tue 04:07:00 PM 48.4495 -89.6123 292° West  Level Estimated
Tue 04:08:00 PM 48.4576 -89.6536 286° West  Level FlightAware Approximate
Tue 04:09:00 PM 48.4679 -89.6939 270° West  Level Estimated
Tue 04:10:00 PM 48.4782 -89.7341 292° West  Level Estimated
Tue 04:11:00 PM 48.4874 -89.7750 289° West  Level FlightAware Approximate
Tue 04:12:00 PM 48.4965 -89.8159 289° West  Level FlightAware Approximate
Tue 04:13:00 PM 48.5056 -89.8568 289° West  Level FlightAware Approximate
Tue 04:14:00 PM 48.5147 -89.8978 289° West  Level FlightAware Approximate
Tue 04:15:00 PM 48.5238 -89.9387 289° West  Level FlightAware Approximate
Tue 04:16:00 PM 48.5328 -89.9797 288° West  Level FlightAware Approximate
Tue 04:17:00 PM 48.5419 -90.0207 288° West  Level FlightAware Approximate
Tue 04:18:00 PM 48.5509 -90.0617 288° West  Level FlightAware Approximate
Tue 04:19:00 PM 48.5599 -90.1027 288° West  Level FlightAware Approximate
Tue 04:20:00 PM 48.5701 -90.1431 291° West  Level Estimated
Tue 04:21:00 PM 48.5806 -90.1833 291° West  Level FlightAware Approximate
Tue 04:22:00 PM 48.5909 -90.2236 291° West  Level FlightAware Approximate
Tue 04:23:00 PM 48.6013 -90.2639 291° West  Level FlightAware Approximate
Tue 04:24:00 PM 48.6117 -90.3042 291° West  Level FlightAware Approximate
Tue 04:25:00 PM 48.6220 -90.3446 291° West  Level FlightAware Approximate
Tue 04:26:00 PM 48.6324 -90.3849 291° West  Level FlightAware Approximate
Tue 04:27:00 PM 48.6427 -90.4253 291° West  Level FlightAware Approximate
Tue 04:28:00 PM 48.6530 -90.4657 291° West  Level FlightAware Approximate
Tue 04:29:00 PM 48.6633 -90.5061 291° West  Level FlightAware Approximate
Tue 04:30:00 PM 48.6736 -90.5465 291° West  Level FlightAware Approximate
Tue 04:31:00 PM 48.6838 -90.5869 291° West  Level FlightAware Approximate
Tue 04:32:00 PM 48.6941 -90.6274 291° West  Level FlightAware Approximate
Tue 04:33:00 PM 48.7043 -90.6678 291° West  Level FlightAware Approximate
Tue 04:34:00 PM 48.7146 -90.7083 291° West  Level FlightAware Approximate
Tue 04:35:00 PM 48.7248 -90.7488 291° West  Level FlightAware Approximate
Tue 04:36:00 PM 48.7350 -90.7893 291° West  Level FlightAware Approximate
Tue 04:37:00 PM 48.7452 -90.8299 291° West  Level FlightAware Approximate
Tue 04:38:00 PM 48.7553 -90.8704 291° West  Level FlightAware Approximate
Tue 04:39:00 PM 48.7655 -90.9110 291° West  Level FlightAware Approximate
Tue 04:40:00 PM 48.7756 -90.9516 291° West  Level FlightAware Approximate
Tue 04:41:00 PM 48.7857 -90.9922 291° West  Level FlightAware Approximate
Tue 04:42:00 PM 48.7958 -91.0328 291° West  Level FlightAware Approximate
Tue 04:43:00 PM 48.8059 -91.0734 291° West  Level FlightAware Approximate
Tue 04:44:00 PM 48.8158 -91.1142 290° West  Level Estimated
Tue 04:45:00 PM 48.8256 -91.1550 290° West  Level FlightAware Approximate
Tue 04:46:00 PM 48.8355 -91.1958 290° West  Level FlightAware Approximate
Tue 04:47:00 PM 48.8453 -91.2366 290° West  Level FlightAware Approximate
Tue 04:48:00 PM 48.8551 -91.2774 290° West  Level FlightAware Approximate
Tue 04:49:00 PM 48.8649 -91.3183 290° West  Level FlightAware Approximate
Tue 04:50:00 PM 48.8747 -91.3591 290° West  Level FlightAware Approximate
Tue 04:51:00 PM 48.8844 -91.4000 290° West  Level FlightAware Approximate
Tue 04:52:00 PM 48.8942 -91.4409 290° West  Level FlightAware Approximate
Tue 04:53:00 PM 48.9039 -91.4818 290° West  Level FlightAware Approximate
Tue 04:54:00 PM 48.9136 -91.5228 290° West  Level FlightAware Approximate
Tue 04:55:00 PM 48.9233 -91.5637 290° West  Level FlightAware Approximate
Tue 04:56:00 PM 48.9330 -91.6047 290° West  Level FlightAware Approximate
Tue 04:57:00 PM 48.9427 -91.6457 290° West  Level FlightAware Approximate
Tue 04:58:00 PM 48.9524 -91.6866 290° West  Level FlightAware Approximate
Tue 04:59:00 PM 48.9620 -91.7277 290° West  Level FlightAware Approximate
Tue 05:00:00 PM 48.9716 -91.7687 290° West  Level FlightAware Approximate
Tue 05:01:00 PM 48.9813 -91.8097 290° West  Level FlightAware Approximate
Tue 05:02:00 PM 48.9908 -91.8508 290° West  Level FlightAware Approximate
Tue 05:03:00 PM 49.0004 -91.8919 290° West  Level FlightAware Approximate
Tue 05:03:31 PM 48.3667 -89.2500 289° West 100 115 1,400  Level Winnipeg Center
Tue 05:04:00 PM 49.0100 -91.9329 290° West  Level FlightAware Approximate
Tue 05:04:31 PM 48.3833 -89.2000 63° Northeast 120 138 2,300  Level Winnipeg Center
Tue 05:05:00 PM 49.0196 -91.9740 290° West  Level FlightAware Approximate
Tue 05:05:31 PM 48.4167 -89.2167 342° North 130 150 3,400  Level Winnipeg Center
Tue 05:06:00 PM 49.0291 -92.0152 289° West  Level Estimated
Tue 05:06:31 PM 48.4333 -89.2500 307° West 130 150 4,100  Level Winnipeg Center
Tue 05:07:00 PM 49.0385 -92.0564 289° West  Level FlightAware Approximate
Tue 05:07:31 PM 48.4667 -89.3000 315° West 130 150 4,900  Level Winnipeg Center
Tue 05:08:00 PM 49.0479 -92.0976 289° West  Level FlightAware Approximate
Tue 05:08:31 PM 48.4667 -89.3500 270° West 120 138 5,900  Level Winnipeg Center
Tue 05:09:31 PM 48.4833 -89.4000 297° West 120 138 6,700 900 Climbing Winnipeg Center
Tue 05:10:31 PM 48.4833 -89.4500 270° West 120 138 7,700 700 Climbing Winnipeg Center
Tue 05:11:31 PM 48.5000 -89.4833 307° West 140 161 8,100 200 Climbing Winnipeg Center
Tue 05:12:31 PM 48.5167 -89.5333 297° West 150 173 8,100  Level Winnipeg Center
Tue 05:13:31 PM 48.5333 -89.6167 287° West 150 173 8,100  Level Winnipeg Center
Tue 05:14:31 PM 48.5500 -89.6667 297° West 150 173 8,100  Level Winnipeg Center
Tue 05:15:31 PM 48.5500 -89.7333 270° West 150 173 8,100  Level Winnipeg Center
Tue 05:16:31 PM 48.5833 -89.7833 315° West 150 173 8,100  Level Winnipeg Center
Tue 05:17:31 PM 48.5833 -89.8333 270° West 150 173 8,100  Level Winnipeg Center
Tue 05:18:31 PM 48.6000 -89.9000 291° West 150 173 8,100  Level Winnipeg Center
Tue 05:19:31 PM 48.6167 -89.9500 297° West 150 173 8,100  Level Winnipeg Center
Tue 05:20:31 PM 48.6333 -90.0333 287° West 150 173 8,100  Level Winnipeg Center
Tue 05:21:31 PM 48.6500 -90.0833 297° West 150 173 8,100 50 Level Winnipeg Center
Tue 05:22:31 PM 48.6667 -90.1500 291° West 150 173 8,200 50 Climbing Winnipeg Center
Tue 05:23:31 PM 48.6833 -90.2000 297° West 150 173 8,200  Level Winnipeg Center
Tue 05:24:31 PM 48.6833 -90.2500 270° West 150 173 8,200  Level Winnipeg Center
Tue 05:25:31 PM 48.7167 -90.3167 307° West 160 184 8,200  Level Winnipeg Center
Tue 05:26:31 PM 48.7333 -90.3667 297° West 150 173 8,200 -50 Level Winnipeg Center
Tue 05:27:31 PM 48.7333 -90.4500 270° West 150 173 8,100  Descending Winnipeg Center
Tue 05:28:31 PM 48.7500 -90.5000 297° West 150 173 8,200 50 Climbing Winnipeg Center
Tue 05:29:31 PM 48.7833 -90.5667 307° West 150 173 8,200 -50 Level Winnipeg Center
Tue 05:30:31 PM 48.7833 -90.6167 270° West 150 173 8,100  Descending Winnipeg Center
Tue 05:31:31 PM 48.8000 -90.7000 287° West 150 173 8,200 50 Climbing Winnipeg Center
Tue 05:32:31 PM 48.8000 -90.7500 270° West 150 173 8,200  Level Winnipeg Center
Tue 05:33:31 PM 48.8167 -90.8167 291° West 150 173 8,200  Level Winnipeg Center
Tue 05:34:31 PM 48.8500 -90.8667 315° West 150 173 8,200  Level Winnipeg Center
Tue 05:35:31 PM 48.8500 -90.9167 270° West 150 173 8,200 -50 Level Winnipeg Center
Tue 05:36:31 PM 48.8667 -90.9833 291° West 150 173 8,100 -50 Descending Winnipeg Center
Tue 05:37:31 PM 48.8667 -91.0333 270° West 150 173 8,100  Level Winnipeg Center
Tue 05:38:31 PM 48.8833 -91.1167 287° West 150 173 8,100 -50 Level Winnipeg Center
Tue 05:39:31 PM 48.9000 -91.1667 297° West 150 173 8,000 -50 Descending Winnipeg Center
Tue 05:40:31 PM 48.9167 -91.2333 291° West 150 173 8,000  Level Winnipeg Center
Tue 05:41:31 PM 48.9333 -91.2833 297° West 150 173 8,000  Level Winnipeg Center
Tue 05:42:31 PM 48.9500 -91.3333 297° West 150 173 8,000  Level Winnipeg Center
Tue 05:43:31 PM 48.9500 -91.4167 270° West 150 173 8,000  Level Winnipeg Center
Tue 05:44:31 PM 48.9667 -91.4667 297° West 150 173 8,000  Level Winnipeg Center
Tue 05:45:31 PM 49.0000 -91.5333 307° West 150 173 8,000  Level Winnipeg Center
Tue 05:46:31 PM 49.0000 -91.5833 270° West 150 173 8,000  Level Winnipeg Center
Tue 05:47:31 PM 49.0167 -91.6667 287° West 150 173 8,000  Level Winnipeg Center
Tue 05:48:31 PM 49.0167 -91.7167 270° West 150 173 8,000  Level Winnipeg Center
Tue 05:49:31 PM 49.0333 -91.7667 297° West 150 173 8,000  Level Winnipeg Center
Tue 05:50:31 PM 49.0500 -91.8333 291° West 150 173 8,000  Level Winnipeg Center
Tue 05:51:31 PM 49.0667 -91.8833 297° West 150 173 8,000  Level Winnipeg Center
Tue 05:52:31 PM 49.0833 -91.9667 287° West 150 173 8,000  Level Winnipeg Center
Tue 05:53:31 PM 49.0833 -92.0167 270° West 150 173 8,000  Level Winnipeg Center
Tue 05:54:31 PM 49.1000 -92.0833 291° West 150 173 8,000  Level Winnipeg Center
Tue 05:55:31 PM 49.1167 -92.1333 297° West 150 173 8,000 50 Level Winnipeg Center
Tue 05:56:31 PM 49.1333 -92.2167 287° West 150 173 8,100  Climbing Winnipeg Center
Tue 05:57:31 PM 49.1500 -92.2667 297° West 150 173 8,000 -50 Descending Winnipeg Center
Tue 05:58:31 PM 49.1667 -92.3333 291° West 150 173 8,000  Level Winnipeg Center
Tue 05:59:31 PM 49.1667 -92.3833 270° West 150 173 8,000  Level Winnipeg Center
Tue 06:00:31 PM 49.1833 -92.4667 287° West 150 173 8,000  Level Winnipeg Center
Tue 06:01:31 PM 49.1833 -92.5167 270° West 150 173 8,000  Level Winnipeg Center
Tue 06:02:31 PM 49.2000 -92.5833 291° West 150 173 8,000  Level Winnipeg Center
Tue 06:03:31 PM 49.2333 -92.6333 316° Northwest 150 173 8,000  Level Winnipeg Center
Tue 06:04:31 PM 49.2500 -92.6833 297° West 150 173 8,000  Level Winnipeg Center
Tue 06:05:31 PM 49.2667 -92.7667 287° West 150 173 8,000  Level Winnipeg Center
Tue 06:06:31 PM 49.2667 -92.8167 270° West 150 173 8,000  Level Winnipeg Center
Tue 06:07:31 PM 49.2833 -92.8833 291° West 150 173 8,000 50 Level Winnipeg Center
Tue 06:08:31 PM 49.3000 -92.9333 297° West 150 173 8,100 50 Climbing Winnipeg Center
Tue 06:09:31 PM 49.3167 -92.9833 297° West 150 173 8,100 -50 Level Winnipeg Center
Tue 06:10:31 PM 49.3333 -93.0667 287° West 150 173 8,000 -50 Descending Winnipeg Center
Tue 06:11:31 PM 49.3500 -93.1167 297° West 150 173 8,000  Level Winnipeg Center
Tue 06:12:31 PM 49.3500 -93.1833 270° West 150 173 8,000  Level Winnipeg Center
Tue 06:13:31 PM 49.3667 -93.2333 297° West 150 173 8,000  Level Winnipeg Center
Tue 06:14:31 PM 49.3833 -93.3167 287° West 150 173 8,000  Level Winnipeg Center
Tue 06:15:31 PM 49.3833 -93.3667 270° West 150 173 8,000  Level Winnipeg Center
Tue 06:16:31 PM 49.4000 -93.4500 287° West 150 173 8,000  Level Winnipeg Center
Tue 06:17:31 PM 49.4000 -93.5000 270° West 150 173 8,000  Level Winnipeg Center
Tue 06:18:31 PM 49.4333 -93.5667 308° West 150 173 8,000  Level Winnipeg Center
Tue 06:19:31 PM 49.4500 -93.6167 297° West 150 173 8,000  Level Winnipeg Center
Tue 06:20:31 PM 49.4500 -93.6667 270° West 150 173 8,000  Level Winnipeg Center
Tue 06:21:31 PM 49.4667 -93.7500 287° West 160 184 8,000  Level Winnipeg Center
Tue 06:22:31 PM 49.4667 -93.8000 270° West 150 173 8,000  Level Winnipeg Center
Tue 06:23:31 PM 49.4833 -93.8833 287° West 150 173 8,000  Level Winnipeg Center
Tue 06:24:31 PM 49.5000 -93.9333 297° West 150 173 8,000  Level Winnipeg Center
Tue 06:25:31 PM 49.5000 -94.0000 270° West 150 173 8,000  Level Winnipeg Center
Tue 06:26:31 PM 49.5167 -94.0500 297° West 150 173 8,000  Level Winnipeg Center
Tue 06:27:31 PM 49.5500 -94.1333 302° West 150 173 8,000  Level Winnipeg Center
Tue 06:28:31 PM 49.5500 -94.1833 270° West 150 173 8,000  Level Winnipeg Center
Tue 06:29:31 PM 49.5667 -94.2500 291° West 150 173 8,000  Level Winnipeg Center
Tue 06:30:31 PM 49.5667 -94.3167 270° West 150 173 8,000  Level Winnipeg Center
Tue 06:31:31 PM 49.5833 -94.3667 297° West 150 173 8,000  Level Winnipeg Center
Tue 06:32:31 PM 49.5833 -94.4333 270° West 150 173 8,000  Level Winnipeg Center
Tue 06:33:31 PM 49.6000 -94.4833 297° West 150 173 8,000  Level Winnipeg Center
Tue 06:34:31 PM 49.6167 -94.5667 287° West 150 173 8,000  Level Winnipeg Center
Tue 06:35:31 PM 49.6167 -94.6167 270° West 150 173 8,000  Level Winnipeg Center
Tue 06:36:31 PM 49.6333 -94.6667 297° West 150 173 8,000  Level Winnipeg Center
Tue 06:37:31 PM 49.6333 -94.7500 270° West 150 173 8,000  Level Winnipeg Center
Tue 06:38:31 PM 49.6500 -94.8000 297° West 150 173 8,000  Level Winnipeg Center
Tue 06:39:31 PM 49.6833 -94.8667 308° West 150 173 8,000  Level Winnipeg Center
Tue 06:40:31 PM 49.6833 -94.9167 270° West 150 173 8,000  Level Winnipeg Center
Tue 06:41:31 PM 49.7000 -95.0000 287° West 150 173 8,000  Level Winnipeg Center
Tue 06:42:31 PM 49.7167 -95.0500 297° West 150 173 8,000  Level Winnipeg Center
Tue 06:43:31 PM 49.7167 -95.1000 270° West 150 173 8,000  Level Winnipeg Center
Tue 06:44:31 PM 49.7333 -95.1833 287° West 150 173 8,000  Level Winnipeg Center
Tue 06:45:31 PM 49.7333 -95.2500 270° West 150 173 8,000  Level Winnipeg Center
Tue 06:46:31 PM 49.7500 -95.3167 291° West 150 173 8,000  Level Winnipeg Center
Tue 06:47:31 PM 49.7667 -95.3667 297° West 150 173 8,000  Level Winnipeg Center
Tue 06:48:31 PM 49.7667 -95.4333 270° West 150 173 8,000  Level Winnipeg Center
Tue 06:49:31 PM 49.7833 -95.4833 297° West 150 173 8,000  Level Winnipeg Center
Tue 06:50:31 PM 49.7833 -95.5333 270° West 150 173 8,000 -50 Level Winnipeg Center
Tue 06:51:31 PM 49.8000 -95.6167 287° West 150 173 7,900 -50 Descending Winnipeg Center
Tue 06:52:31 PM 49.8000 -95.6667 270° West 150 173 7,900  Level Winnipeg Center
Tue 06:53:31 PM 49.8167 -95.7500 287° West 150 173 7,900  Level Winnipeg Center
Tue 06:54:31 PM 49.8333 -95.8000 297° West 150 173 7,900  Level Winnipeg Center
Tue 06:55:31 PM 49.8333 -95.8833 270° West 150 173 7,900  Level Winnipeg Center
Tue 06:56:31 PM 49.8500 -95.9333 297° West 150 173 7,900  Level Winnipeg Center
Tue 06:57:31 PM 49.8667 -96.0000 291° West 150 173 7,900  Level Winnipeg Center
Tue 06:58:31 PM 49.8833 -96.0500 297° West 150 173 7,900  Level Winnipeg Center
Tue 06:59:31 PM 49.9000 -96.1167 291° West 150 173 7,900 -50 Level Winnipeg Center
Tue 07:00:31 PM 49.9167 -96.1833 291° West 150 173 7,800 -300 Descending Winnipeg Center
Tue 07:01:31 PM 49.9167 -96.2333 270° West 150 173 7,300 -500 Descending Winnipeg Center
Tue 07:02:31 PM 49.9333 -96.3167 287° West 160 184 6,800 -450 Descending Winnipeg Center
Tue 07:03:31 PM 49.9333 -96.3667 270° West 160 184 6,400 -500 Descending Winnipeg Center
Tue 07:04:31 PM 49.9500 -96.4500 287° West 160 184 5,800 -400 Descending Winnipeg Center
Tue 07:05:31 PM 49.9667 -96.5000 297° West 150 173 5,600 -350 Descending Winnipeg Center
Tue 07:06:31 PM 49.9667 -96.5833 270° West 160 184 5,100 -500 Descending Winnipeg Center
Tue 07:07:31 PM 49.9833 -96.6333 297° West 150 173 4,600 -450 Descending Winnipeg Center
Tue 07:08:31 PM 50.0000 -96.7000 291° West 150 173 4,200 -550 Descending Winnipeg Center
Tue 07:09:31 PM 50.0000 -96.7500 270° West 160 184 3,500 -600 Descending Winnipeg Center
Tue 07:10:31 PM 50.0167 -96.8333 287° West 160 184 3,000 -600 Descending Winnipeg Center
Tue 07:11:31 PM 50.0333 -96.8833 297° West 160 184 2,300 -400 Descending Winnipeg Center
Tue 07:12:31 PM 50.0500 -96.9333 297° West 110 127 2,200 -400 Descending Winnipeg Center
Tue 07:13:31 PM 50.0500 -97.0000 270° West 100 115 1,500 -650 Descending Winnipeg Center
Tue 07:14:31 PM 50.0500 -97.0167 270° West 80 92 900 -600 Descending Winnipeg Center

Login

Don't have an account? Register now (free) for customized features, flight alerts, and more!